sensor_id;sensor_type;location;lat;lon;timestamp;temperature;humidity
67502;SHT30;54349;52.528;19.760;2023-03-05T00:01:38;21.48;37.52
67502;SHT30;54349;52.528;19.760;2023-03-05T00:04:09;21.48;37.50
67502;SHT30;54349;52.528;19.760;2023-03-05T00:06:41;21.51;37.39
67502;SHT30;54349;52.528;19.760;2023-03-05T00:09:09;21.53;37.36
67502;SHT30;54349;52.528;19.760;2023-03-05T00:11:38;21.53;37.38
67502;SHT30;54349;52.528;19.760;2023-03-05T00:14:06;21.54;37.39
67502;SHT30;54349;52.528;19.760;2023-03-05T00:16:34;21.57;37.33
67502;SHT30;54349;52.528;19.760;2023-03-05T00:19:03;21.58;37.23
67502;SHT30;54349;52.528;19.760;2023-03-05T00:21:33;21.59;37.23
67502;SHT30;54349;52.528;19.760;2023-03-05T00:24:09;21.59;37.23
67502;SHT30;54349;52.528;19.760;2023-03-05T00:26:45;21.61;37.23
67502;SHT30;54349;52.528;19.760;2023-03-05T00:29:14;21.64;37.15
67502;SHT30;54349;52.528;19.760;2023-03-05T00:31:45;21.65;37.11
67502;SHT30;54349;52.528;19.760;2023-03-05T00:34:14;21.65;37.04
67502;SHT30;54349;52.528;19.760;2023-03-05T00:36:47;21.62;38.52
67502;SHT30;54349;52.528;19.760;2023-03-05T00:39:18;21.61;38.72
67502;SHT30;54349;52.528;19.760;2023-03-05T00:41:48;21.63;38.60
67502;SHT30;54349;52.528;19.760;2023-03-05T00:44:16;21.63;38.42
67502;SHT30;54349;52.528;19.760;2023-03-05T00:46:44;21.64;38.28
67502;SHT30;54349;52.528;19.760;2023-03-05T00:49:14;21.65;38.16
67502;SHT30;54349;52.528;19.760;2023-03-05T00:51:44;21.66;38.09
67502;SHT30;54349;52.528;19.760;2023-03-05T00:54:12;21.67;37.89
67502;SHT30;54349;52.528;19.760;2023-03-05T00:56:41;21.67;37.88
67502;SHT30;54349;52.528;19.760;2023-03-05T00:59:10;21.68;37.79
67502;SHT30;54349;52.528;19.760;2023-03-05T01:01:38;21.69;37.77
67502;SHT30;54349;52.528;19.760;2023-03-05T01:04:06;21.70;37.69
67502;SHT30;54349;52.528;19.760;2023-03-05T01:06:36;21.71;37.63
67502;SHT30;54349;52.528;19.760;2023-03-05T01:09:09;21.72;37.59
67502;SHT30;54349;52.528;19.760;2023-03-05T01:11:38;21.73;37.53
67502;SHT30;54349;52.528;19.760;2023-03-05T01:14:06;21.73;37.48
67502;SHT30;54349;52.528;19.760;2023-03-05T01:16:34;21.72;37.25
67502;SHT30;54349;52.528;19.760;2023-03-05T01:19:03;21.68;36.86
67502;SHT30;54349;52.528;19.760;2023-03-05T01:21:33;21.61;36.72
67502;SHT30;54349;52.528;19.760;2023-03-05T01:24:03;21.56;36.74
67502;SHT30;54349;52.528;19.760;2023-03-05T01:26:32;21.50;36.54
67502;SHT30;54349;52.528;19.760;2023-03-05T01:29:00;21.45;36.38
67502;SHT30;54349;52.528;19.760;2023-03-05T01:31:29;21.39;36.29
67502;SHT30;54349;52.528;19.760;2023-03-05T01:33:57;21.34;36.30
67502;SHT30;54349;52.528;19.760;2023-03-05T01:36:27;21.30;36.20
67502;SHT30;54349;52.528;19.760;2023-03-05T01:38:55;21.24;36.05
67502;SHT30;54349;52.528;19.760;2023-03-05T01:41:23;21.19;35.97
67502;SHT30;54349;52.528;19.760;2023-03-05T01:43:52;21.16;35.98
67502;SHT30;54349;52.528;19.760;2023-03-05T01:48:53;21.09;35.78
67502;SHT30;54349;52.528;19.760;2023-03-05T01:51:32;21.04;35.60
67502;SHT30;54349;52.528;19.760;2023-03-05T01:54:09;20.99;35.42
67502;SHT30;54349;52.528;19.760;2023-03-05T01:56:42;20.93;35.41
67502;SHT30;54349;52.528;19.760;2023-03-05T01:59:15;20.88;35.23
67502;SHT30;54349;52.528;19.760;2023-03-05T02:01:45;20.84;35.36
67502;SHT30;54349;52.528;19.760;2023-03-05T02:04:18;20.81;35.15
67502;SHT30;54349;52.528;19.760;2023-03-05T02:06:54;20.75;35.04
67502;SHT30;54349;52.528;19.760;2023-03-05T02:09:23;20.71;35.05
67502;SHT30;54349;52.528;19.760;2023-03-05T02:11:55;20.67;35.05
67502;SHT30;54349;52.528;19.760;2023-03-05T02:14:23;20.64;35.10
67502;SHT30;54349;52.528;19.760;2023-03-05T02:16:53;20.60;35.08
67502;SHT30;54349;52.528;19.760;2023-03-05T02:19:22;20.60;35.06
67502;SHT30;54349;52.528;19.760;2023-03-05T02:21:50;20.58;35.06
67502;SHT30;54349;52.528;19.760;2023-03-05T02:24:31;20.56;34.99
67502;SHT30;54349;52.528;19.760;2023-03-05T02:27:03;20.53;34.95
67502;SHT30;54349;52.528;19.760;2023-03-05T02:29:31;20.49;34.98
67502;SHT30;54349;52.528;19.760;2023-03-05T02:32:04;20.48;34.89
67502;SHT30;54349;52.528;19.760;2023-03-05T02:34:32;20.46;34.87
67502;SHT30;54349;52.528;19.760;2023-03-05T02:37:01;20.45;34.87
67502;SHT30;54349;52.528;19.760;2023-03-05T02:39:31;20.41;34.63
67502;SHT30;54349;52.528;19.760;2023-03-05T02:42:00;20.38;34.65
67502;SHT30;54349;52.528;19.760;2023-03-05T02:44:29;20.36;34.67
67502;SHT30;54349;52.528;19.760;2023-03-05T02:46:57;20.34;34.63
67502;SHT30;54349;52.528;19.760;2023-03-05T02:49:25;20.30;34.49
67502;SHT30;54349;52.528;19.760;2023-03-05T02:51:54;20.27;34.48
67502;SHT30;54349;52.528;19.760;2023-03-05T02:54:22;20.24;34.60
67502;SHT30;54349;52.528;19.760;2023-03-05T02:56:50;20.23;34.54
67502;SHT30;54349;52.528;19.760;2023-03-05T02:59:18;20.20;34.51
67502;SHT30;54349;52.528;19.760;2023-03-05T03:01:46;20.20;34.45
67502;SHT30;54349;52.528;19.760;2023-03-05T03:04:14;20.16;34.45
67502;SHT30;54349;52.528;19.760;2023-03-05T03:06:42;20.15;34.43
67502;SHT30;54349;52.528;19.760;2023-03-05T03:09:10;20.13;34.41
67502;SHT30;54349;52.528;19.760;2023-03-05T03:11:38;20.11;34.44
67502;SHT30;54349;52.528;19.760;2023-03-05T03:14:06;20.10;34.43
67502;SHT30;54349;52.528;19.760;2023-03-05T03:16:34;20.09;34.43
67502;SHT30;54349;52.528;19.760;2023-03-05T03:19:03;20.08;34.43
67502;SHT30;54349;52.528;19.760;2023-03-05T03:21:31;20.05;34.37
67502;SHT30;54349;52.528;19.760;2023-03-05T03:23:59;20.03;34.43
67502;SHT30;54349;52.528;19.760;2023-03-05T03:26:27;20.02;34.46
67502;SHT30;54349;52.528;19.760;2023-03-05T03:28:56;20.00;34.47
67502;SHT30;54349;52.528;19.760;2023-03-05T03:31:25;19.99;34.49
67502;SHT30;54349;52.528;19.760;2023-03-05T03:33:53;19.97;34.44
67502;SHT30;54349;52.528;19.760;2023-03-05T03:36:21;19.96;34.50
67502;SHT30;54349;52.528;19.760;2023-03-05T03:38:49;19.95;34.42
67502;SHT30;54349;52.528;19.760;2023-03-05T03:41:17;19.94;34.54
67502;SHT30;54349;52.528;19.760;2023-03-05T03:43:46;19.93;34.58
67502;SHT30;54349;52.528;19.760;2023-03-05T03:46:14;19.92;34.49
67502;SHT30;54349;52.528;19.760;2023-03-05T03:48:42;19.90;34.51
67502;SHT30;54349;52.528;19.760;2023-03-05T03:51:10;19.88;34.51
67502;SHT30;54349;52.528;19.760;2023-03-05T03:53:38;19.86;34.54
67502;SHT30;54349;52.528;19.760;2023-03-05T03:56:06;19.86;34.56
67502;SHT30;54349;52.528;19.760;2023-03-05T03:58:34;19.85;34.55
67502;SHT30;54349;52.528;19.760;2023-03-05T04:01:02;19.81;34.14
67502;SHT30;54349;52.528;19.760;2023-03-05T04:03:31;19.75;34.07
67502;SHT30;54349;52.528;19.760;2023-03-05T04:05:58;19.67;34.01
67502;SHT30;54349;52.528;19.760;2023-03-05T04:08:26;19.62;34.02
67502;SHT30;54349;52.528;19.760;2023-03-05T04:10:55;19.59;33.97
67502;SHT30;54349;52.528;19.760;2023-03-05T04:13:23;19.57;33.80
67502;SHT30;54349;52.528;19.760;2023-03-05T04:15:52;19.51;33.75
67502;SHT30;54349;52.528;19.760;2023-03-05T04:18:21;19.47;33.67
67502;SHT30;54349;52.528;19.760;2023-03-05T04:20:50;19.43;33.60
67502;SHT30;54349;52.528;19.760;2023-03-05T04:23:18;19.39;33.64
67502;SHT30;54349;52.528;19.760;2023-03-05T04:25:47;19.36;33.64
67502;SHT30;54349;52.528;19.760;2023-03-05T04:28:14;19.35;33.72
67502;SHT30;54349;52.528;19.760;2023-03-05T04:30:44;19.38;33.65
67502;SHT30;54349;52.528;19.760;2023-03-05T04:33:12;19.37;33.56
67502;SHT30;54349;52.528;19.760;2023-03-05T04:35:41;19.36;33.60
67502;SHT30;54349;52.528;19.760;2023-03-05T04:38:10;19.34;33.43
67502;SHT30;54349;52.528;19.760;2023-03-05T04:40:38;19.29;33.26
67502;SHT30;54349;52.528;19.760;2023-03-05T04:43:06;19.25;33.12
67502;SHT30;54349;52.528;19.760;2023-03-05T04:45:34;19.22;33.09
67502;SHT30;54349;52.528;19.760;2023-03-05T04:48:06;19.23;33.02
67502;SHT30;54349;52.528;19.760;2023-03-05T04:50:35;19.25;33.01
67502;SHT30;54349;52.528;19.760;2023-03-05T04:53:04;19.31;32.97
67502;SHT30;54349;52.528;19.760;2023-03-05T04:55:33;19.35;32.76
67502;SHT30;54349;52.528;19.760;2023-03-05T04:58:01;19.41;32.77
67502;SHT30;54349;52.528;19.760;2023-03-05T05:00:29;19.49;32.65
67502;SHT30;54349;52.528;19.760;2023-03-05T05:02:58;19.54;32.45
67502;SHT30;54349;52.528;19.760;2023-03-05T05:05:27;19.60;32.42
67502;SHT30;54349;52.528;19.760;2023-03-05T05:07:56;19.68;32.25
67502;SHT30;54349;52.528;19.760;2023-03-05T05:10:25;19.74;32.23
67502;SHT30;54349;52.528;19.760;2023-03-05T05:12:54;19.87;32.20
67502;SHT30;54349;52.528;19.760;2023-03-05T05:15:22;19.97;31.98
67502;SHT30;54349;52.528;19.760;2023-03-05T05:17:50;20.02;31.88
67502;SHT30;54349;52.528;19.760;2023-03-05T05:20:19;20.03;31.76
67502;SHT30;54349;52.528;19.760;2023-03-05T05:22:47;20.04;31.74
67502;SHT30;54349;52.528;19.760;2023-03-05T05:25:15;20.06;31.69
67502;SHT30;54349;52.528;19.760;2023-03-05T05:27:43;20.09;31.77
67502;SHT30;54349;52.528;19.760;2023-03-05T05:30:12;20.14;31.81
67502;SHT30;54349;52.528;19.760;2023-03-05T05:32:40;20.21;31.64
67502;SHT30;54349;52.528;19.760;2023-03-05T05:35:08;20.23;31.69
67502;SHT30;54349;52.528;19.760;2023-03-05T05:37:37;20.31;31.61
67502;SHT30;54349;52.528;19.760;2023-03-05T05:40:05;20.35;31.59
67502;SHT30;54349;52.528;19.760;2023-03-05T05:42:36;20.38;31.38
67502;SHT30;54349;52.528;19.760;2023-03-05T05:45:04;20.40;31.54
67502;SHT30;54349;52.528;19.760;2023-03-05T05:47:33;20.49;31.49
67502;SHT30;54349;52.528;19.760;2023-03-05T05:50:02;20.54;31.35
67502;SHT30;54349;52.528;19.760;2023-03-05T05:52:31;20.55;31.26
67502;SHT30;54349;52.528;19.760;2023-03-05T05:54:59;20.54;31.40
67502;SHT30;54349;52.528;19.760;2023-03-05T05:57:28;20.60;31.37
67502;SHT30;54349;52.528;19.760;2023-03-05T05:59:55;20.62;31.11
67502;SHT30;54349;52.528;19.760;2023-03-05T06:02:24;20.61;31.25
67502;SHT30;54349;52.528;19.760;2023-03-05T06:04:55;20.65;31.24
67502;SHT30;54349;52.528;19.760;2023-03-05T06:07:24;20.66;31.05
67502;SHT30;54349;52.528;19.760;2023-03-05T06:09:52;20.64;30.99
67502;SHT30;54349;52.528;19.760;2023-03-05T06:12:20;20.61;30.96
67502;SHT30;54349;52.528;19.760;2023-03-05T06:14:48;20.58;31.02
67502;SHT30;54349;52.528;19.760;2023-03-05T06:17:16;20.58;31.05
67502;SHT30;54349;52.528;19.760;2023-03-05T06:19:57;20.59;31.00
67502;SHT30;54349;52.528;19.760;2023-03-05T06:22:25;20.58;30.98
67502;SHT30;54349;52.528;19.760;2023-03-05T06:24:54;20.58;30.87
67502;SHT30;54349;52.528;19.760;2023-03-05T06:27:22;20.56;30.86
67502;SHT30;54349;52.528;19.760;2023-03-05T06:29:51;20.56;31.01
67502;SHT30;54349;52.528;19.760;2023-03-05T06:32:21;20.63;31.05
67502;SHT30;54349;52.528;19.760;2023-03-05T06:34:50;20.65;30.86
67502;SHT30;54349;52.528;19.760;2023-03-05T06:37:18;20.65;30.87
67502;SHT30;54349;52.528;19.760;2023-03-05T06:39:46;20.67;31.06
67502;SHT30;54349;52.528;19.760;2023-03-05T06:42:14;20.73;31.04
67502;SHT30;54349;52.528;19.760;2023-03-05T06:44:44;20.76;30.85
67502;SHT30;54349;52.528;19.760;2023-03-05T06:47:14;20.75;30.79
67502;SHT30;54349;52.528;19.760;2023-03-05T06:49:43;20.74;30.88
67502;SHT30;54349;52.528;19.760;2023-03-05T06:52:11;20.76;30.77
67502;SHT30;54349;52.528;19.760;2023-03-05T06:54:39;20.74;30.86
67502;SHT30;54349;52.528;19.760;2023-03-05T06:57:07;20.79;30.95
67502;SHT30;54349;52.528;19.760;2023-03-05T06:59:37;20.84;30.79
67502;SHT30;54349;52.528;19.760;2023-03-05T07:02:05;20.85;30.86
67502;SHT30;54349;52.528;19.760;2023-03-05T07:04:37;20.90;30.77
67502;SHT30;54349;52.528;19.760;2023-03-05T07:07:06;20.90;30.73
67502;SHT30;54349;52.528;19.760;2023-03-05T07:09:34;20.90;30.71
67502;SHT30;54349;52.528;19.760;2023-03-05T07:12:09;20.89;30.67
67502;SHT30;54349;52.528;19.760;2023-03-05T07:14:38;20.90;30.76
67502;SHT30;54349;52.528;19.760;2023-03-05T07:17:06;20.93;30.72
67502;SHT30;54349;52.528;19.760;2023-03-05T07:19:35;20.97;30.70
67502;SHT30;54349;52.528;19.760;2023-03-05T07:22:05;20.98;30.61
67502;SHT30;54349;52.528;19.760;2023-03-05T07:24:37;20.98;30.66
67502;SHT30;54349;52.528;19.760;2023-03-05T07:27:05;20.98;30.57
67502;SHT30;54349;52.528;19.760;2023-03-05T07:29:33;20.98;30.52
67502;SHT30;54349;52.528;19.760;2023-03-05T07:32:01;20.95;30.40
67502;SHT30;54349;52.528;19.760;2023-03-05T07:34:29;20.93;30.47
67502;SHT30;54349;52.528;19.760;2023-03-05T07:36:58;20.91;30.49
67502;SHT30;54349;52.528;19.760;2023-03-05T07:39:26;20.93;30.40
67502;SHT30;54349;52.528;19.760;2023-03-05T07:41:54;20.92;30.41
67502;SHT30;54349;52.528;19.760;2023-03-05T07:44:26;20.94;30.50
67502;SHT30;54349;52.528;19.760;2023-03-05T07:46:54;20.96;30.48
67502;SHT30;54349;52.528;19.760;2023-03-05T07:49:23;20.98;30.44
67502;SHT30;54349;52.528;19.760;2023-03-05T07:51:51;21.01;30.58
67502;SHT30;54349;52.528;19.760;2023-03-05T07:54:19;21.06;30.51
67502;SHT30;54349;52.528;19.760;2023-03-05T07:56:47;21.09;30.50
67502;SHT30;54349;52.528;19.760;2023-03-05T07:59:15;21.10;30.46
67502;SHT30;54349;52.528;19.760;2023-03-05T08:01:43;21.10;30.39
67502;SHT30;54349;52.528;19.760;2023-03-05T08:04:13;21.11;30.28
67502;SHT30;54349;52.528;19.760;2023-03-05T08:06:41;21.11;30.32
67502;SHT30;54349;52.528;19.760;2023-03-05T08:09:14;21.12;30.31
67502;SHT30;54349;52.528;19.760;2023-03-05T08:11:44;21.12;30.36
67502;SHT30;54349;52.528;19.760;2023-03-05T08:14:12;21.12;30.37
67502;SHT30;54349;52.528;19.760;2023-03-05T08:16:40;21.14;30.13
67502;SHT30;54349;52.528;19.760;2023-03-05T08:19:08;21.08;30.01
67502;SHT30;54349;52.528;19.760;2023-03-05T08:21:37;21.03;29.97
67502;SHT30;54349;52.528;19.760;2023-03-05T08:24:06;20.99;29.88
67502;SHT30;54349;52.528;19.760;2023-03-05T08:26:36;20.98;29.84
67502;SHT30;54349;52.528;19.760;2023-03-05T08:29:07;20.95;29.81
67502;SHT30;54349;52.528;19.760;2023-03-05T08:31:37;20.93;29.74
67502;SHT30;54349;52.528;19.760;2023-03-05T08:34:06;20.91;29.64
67502;SHT30;54349;52.528;19.760;2023-03-05T08:36:34;20.89;29.68
67502;SHT30;54349;52.528;19.760;2023-03-05T08:39:03;20.88;29.63
67502;SHT30;54349;52.528;19.760;2023-03-05T08:41:33;20.87;29.62
67502;SHT30;54349;52.528;19.760;2023-03-05T08:44:01;20.87;29.52
67502;SHT30;54349;52.528;19.760;2023-03-05T08:46:30;20.87;29.47
67502;SHT30;54349;52.528;19.760;2023-03-05T08:48:58;20.86;29.52
67502;SHT30;54349;52.528;19.760;2023-03-05T08:51:26;20.88;29.43
67502;SHT30;54349;52.528;19.760;2023-03-05T08:53:54;20.88;29.48
67502;SHT30;54349;52.528;19.760;2023-03-05T08:56:26;20.91;29.54
67502;SHT30;54349;52.528;19.760;2023-03-05T08:58:57;20.95;29.62
67502;SHT30;54349;52.528;19.760;2023-03-05T09:01:25;20.98;29.48
67502;SHT30;54349;52.528;19.760;2023-03-05T09:03:55;20.97;29.51
67502;SHT30;54349;52.528;19.760;2023-03-05T09:06:23;20.99;29.56
67502;SHT30;54349;52.528;19.760;2023-03-05T09:08:52;21.02;29.48
67502;SHT30;54349;52.528;19.760;2023-03-05T09:11:21;21.02;29.43
67502;SHT30;54349;52.528;19.760;2023-03-05T09:13:49;21.04;29.54
67502;SHT30;54349;52.528;19.760;2023-03-05T09:16:18;21.07;29.52
67502;SHT30;54349;52.528;19.760;2023-03-05T09:18:47;21.09;29.52
67502;SHT30;54349;52.528;19.760;2023-03-05T09:21:15;21.13;29.50
67502;SHT30;54349;52.528;19.760;2023-03-05T09:23:44;21.16;29.52
67502;SHT30;54349;52.528;19.760;2023-03-05T09:26:16;21.19;29.43
67502;SHT30;54349;52.528;19.760;2023-03-05T09:28:47;21.18;29.38
67502;SHT30;54349;52.528;19.760;2023-03-05T09:31:16;21.20;29.46
67502;SHT30;54349;52.528;19.760;2023-03-05T09:33:46;21.22;29.42
67502;SHT30;54349;52.528;19.760;2023-03-05T09:36:20;21.22;29.36
67502;SHT30;54349;52.528;19.760;2023-03-05T09:38:52;21.23;29.26
67502;SHT30;54349;52.528;19.760;2023-03-05T09:48:15;21.17;29.26
67502;SHT30;54349;52.528;19.760;2023-03-05T09:51:06;21.17;29.33
67502;SHT30;54349;52.528;19.760;2023-03-05T09:53:47;21.19;29.34
67502;SHT30;54349;52.528;19.760;2023-03-05T09:56:35;21.28;29.58
67502;SHT30;54349;52.528;19.760;2023-03-05T10:02:04;21.34;29.47
67502;SHT30;54349;52.528;19.760;2023-03-05T10:05:35;21.33;29.41
67502;SHT30;54349;52.528;19.760;2023-03-05T10:07:39;21.31;29.52
67502;SHT30;54349;52.528;19.760;2023-03-05T10:10:25;21.31;29.45
67502;SHT30;54349;52.528;19.760;2023-03-05T10:13:09;21.35;29.46
67502;SHT30;54349;52.528;19.760;2023-03-05T10:21:56;21.32;29.33
67502;SHT30;54349;52.528;19.760;2023-03-05T10:25:05;21.29;29.42
67502;SHT30;54349;52.528;19.760;2023-03-05T10:27:57;21.30;29.47
67502;SHT30;54349;52.528;19.760;2023-03-05T10:33:54;21.32;29.37
67502;SHT30;54349;52.528;19.760;2023-03-05T10:36:58;21.32;29.44
67502;SHT30;54349;52.528;19.760;2023-03-05T10:45:29;21.34;29.32
67502;SHT30;54349;52.528;19.760;2023-03-05T11:02:45;21.40;29.38
67502;SHT30;54349;52.528;19.760;2023-03-05T11:05:44;21.41;29.42
67502;SHT30;54349;52.528;19.760;2023-03-05T11:08:31;21.41;29.31
67502;SHT30;54349;52.528;19.760;2023-03-05T11:13:53;21.38;29.37
67502;SHT30;54349;52.528;19.760;2023-03-05T11:16:31;21.40;29.46
67502;SHT30;54349;52.528;19.760;2023-03-05T11:21:41;21.43;29.51
67502;SHT30;54349;52.528;19.760;2023-03-05T11:24:15;21.50;29.54
67502;SHT30;54349;52.528;19.760;2023-03-05T11:26:49;21.53;29.57
67502;SHT30;54349;52.528;19.760;2023-03-05T11:31:55;21.50;29.45
67502;SHT30;54349;52.528;19.760;2023-03-05T11:34:42;21.48;29.50
67502;SHT30;54349;52.528;19.760;2023-03-05T11:37:18;21.46;29.49
67502;SHT30;54349;52.528;19.760;2023-03-05T11:40:04;21.44;29.55
67502;SHT30;54349;52.528;19.760;2023-03-05T11:42:52;21.43;29.56
67502;SHT30;54349;52.528;19.760;2023-03-05T11:45:25;21.44;29.55
67502;SHT30;54349;52.528;19.760;2023-03-05T11:48:19;21.45;29.60
67502;SHT30;54349;52.528;19.760;2023-03-05T11:50:53;21.44;29.59
67502;SHT30;54349;52.528;19.760;2023-03-05T11:53:28;21.43;29.73
67502;SHT30;54349;52.528;19.760;2023-03-05T11:59:26;21.47;32.02
67502;SHT30;54349;52.528;19.760;2023-03-05T12:02:01;21.54;32.92
67502;SHT30;54349;52.528;19.760;2023-03-05T12:04:39;21.58;33.67
67502;SHT30;54349;52.528;19.760;2023-03-05T12:07:08;21.64;34.23
67502;SHT30;54349;52.528;19.760;2023-03-05T12:12:39;21.81;34.96
67502;SHT30;54349;52.528;19.760;2023-03-05T12:40:37;22.43;36.68
67502;SHT30;54349;52.528;19.760;2023-03-05T12:43:26;22.53;36.38
67502;SHT30;54349;52.528;19.760;2023-03-05T12:48:53;22.78;35.82
67502;SHT30;54349;52.528;19.760;2023-03-05T12:51:31;22.87;35.58
67502;SHT30;54349;52.528;19.760;2023-03-05T12:54:26;22.93;35.38
67502;SHT30;54349;52.528;19.760;2023-03-05T12:57:18;22.99;35.32
67502;SHT30;54349;52.528;19.760;2023-03-05T12:59:57;23.03;35.34
67502;SHT30;54349;52.528;19.760;2023-03-05T13:05:32;23.06;35.45
67502;SHT30;54349;52.528;19.760;2023-03-05T13:10:59;23.06;35.80
67502;SHT30;54349;52.528;19.760;2023-03-05T13:13:32;23.05;36.01
67502;SHT30;54349;52.528;19.760;2023-03-05T13:16:13;23.03;36.01
67502;SHT30;54349;52.528;19.760;2023-03-05T13:19:14;23.03;35.62
67502;SHT30;54349;52.528;19.760;2023-03-05T13:21:55;23.00;35.10
67502;SHT30;54349;52.528;19.760;2023-03-05T13:24:29;22.96;34.77
67502;SHT30;54349;52.528;19.760;2023-03-05T13:26:58;22.93;34.50
67502;SHT30;54349;52.528;19.760;2023-03-05T13:29:27;22.89;34.32
67502;SHT30;54349;52.528;19.760;2023-03-05T13:31:58;22.87;34.60
67502;SHT30;54349;52.528;19.760;2023-03-05T13:39:53;22.93;34.58
67502;SHT30;54349;52.528;19.760;2023-03-05T13:42:28;22.92;34.18
67502;SHT30;54349;52.528;19.760;2023-03-05T13:45:46;22.90;33.92
67502;SHT30;54349;52.528;19.760;2023-03-05T13:47:59;22.86;33.66
67502;SHT30;54349;52.528;19.760;2023-03-05T13:55:52;22.82;33.29
67502;SHT30;54349;52.528;19.760;2023-03-05T14:01:34;22.79;32.97
67502;SHT30;54349;52.528;19.760;2023-03-05T14:09:26;22.77;32.60
67502;SHT30;54349;52.528;19.760;2023-03-05T14:12:06;22.75;32.36
67502;SHT30;54349;52.528;19.760;2023-03-05T14:15:25;22.73;32.37
67502;SHT30;54349;52.528;19.760;2023-03-05T14:18:15;22.72;32.12
67502;SHT30;54349;52.528;19.760;2023-03-05T14:23:40;22.69;32.14
67502;SHT30;54349;52.528;19.760;2023-03-05T14:29:01;22.67;31.86
67502;SHT30;54349;52.528;19.760;2023-03-05T14:34:24;22.70;31.80
67502;SHT30;54349;52.528;19.760;2023-03-05T14:37:17;22.69;31.69
67502;SHT30;54349;52.528;19.760;2023-03-05T14:40:00;22.69;31.62
67502;SHT30;54349;52.528;19.760;2023-03-05T14:42:34;22.70;31.71
67502;SHT30;54349;52.528;19.760;2023-03-05T14:45:28;22.71;31.56
67502;SHT30;54349;52.528;19.760;2023-03-05T14:48:03;22.69;31.51
67502;SHT30;54349;52.528;19.760;2023-03-05T14:50:35;22.69;31.50
67502;SHT30;54349;52.528;19.760;2023-03-05T14:53:27;22.70;31.37
67502;SHT30;54349;52.528;19.760;2023-03-05T14:56:05;22.70;31.41
67502;SHT30;54349;52.528;19.760;2023-03-05T14:59:00;22.70;31.24
67502;SHT30;54349;52.528;19.760;2023-03-05T15:01:28;22.67;31.28
67502;SHT30;54349;52.528;19.760;2023-03-05T15:03:56;22.67;31.30
67502;SHT30;54349;52.528;19.760;2023-03-05T15:06:42;22.66;31.06
67502;SHT30;54349;52.528;19.760;2023-03-05T15:09:15;22.63;31.16
67502;SHT30;54349;52.528;19.760;2023-03-05T15:11:44;22.64;31.24
67502;SHT30;54349;52.528;19.760;2023-03-05T15:14:12;22.67;31.15
67502;SHT30;54349;52.528;19.760;2023-03-05T15:16:42;22.65;30.95
67502;SHT30;54349;52.528;19.760;2023-03-05T15:19:14;22.63;30.89
67502;SHT30;54349;52.528;19.760;2023-03-05T15:21:43;22.60;30.98
67502;SHT30;54349;52.528;19.760;2023-03-05T15:24:11;22.62;30.93
67502;SHT30;54349;52.528;19.760;2023-03-05T15:26:41;22.59;30.77
67502;SHT30;54349;52.528;19.760;2023-03-05T15:29:10;22.56;30.89
67502;SHT30;54349;52.528;19.760;2023-03-05T15:31:39;22.56;30.92
67502;SHT30;54349;52.528;19.760;2023-03-05T15:34:07;22.55;30.78
67502;SHT30;54349;52.528;19.760;2023-03-05T15:36:35;22.54;30.85
67502;SHT30;54349;52.528;19.760;2023-03-05T15:39:04;22.53;30.78
67502;SHT30;54349;52.528;19.760;2023-03-05T15:41:32;22.53;30.85
67502;SHT30;54349;52.528;19.760;2023-03-05T15:44:00;22.54;30.73
67502;SHT30;54349;52.528;19.760;2023-03-05T15:46:29;22.51;30.70
67502;SHT30;54349;52.528;19.760;2023-03-05T15:49:07;22.50;30.61
67502;SHT30;54349;52.528;19.760;2023-03-05T15:51:35;22.47;30.52
67502;SHT30;54349;52.528;19.760;2023-03-05T15:54:03;22.46;30.66
67502;SHT30;54349;52.528;19.760;2023-03-05T15:56:32;22.47;30.74
67502;SHT30;54349;52.528;19.760;2023-03-05T15:59:01;22.49;30.73
67502;SHT30;54349;52.528;19.760;2023-03-05T16:01:29;22.52;30.70
67502;SHT30;54349;52.528;19.760;2023-03-05T16:03:57;22.55;30.61
67502;SHT30;54349;52.528;19.760;2023-03-05T16:06:25;22.54;30.61
67502;SHT30;54349;52.528;19.760;2023-03-05T16:08:57;22.55;30.70
67502;SHT30;54349;52.528;19.760;2023-03-05T16:11:31;22.56;30.66
67502;SHT30;54349;52.528;19.760;2023-03-05T16:14:04;22.58;30.61
67502;SHT30;54349;52.528;19.760;2023-03-05T16:16:36;22.60;30.66
67502;SHT30;54349;52.528;19.760;2023-03-05T16:19:06;22.60;30.56
67502;SHT30;54349;52.528;19.760;2023-03-05T16:21:38;22.60;30.59
67502;SHT30;54349;52.528;19.760;2023-03-05T16:24:07;22.60;30.44
67502;SHT30;54349;52.528;19.760;2023-03-05T16:26:36;22.58;30.55
67502;SHT30;54349;52.528;19.760;2023-03-05T16:29:07;22.59;30.57
67502;SHT30;54349;52.528;19.760;2023-03-05T16:31:38;22.62;30.60
67502;SHT30;54349;52.528;19.760;2023-03-05T16:34:15;22.63;30.54
67502;SHT30;54349;52.528;19.760;2023-03-05T16:36:47;22.63;30.51
67502;SHT30;54349;52.528;19.760;2023-03-05T16:39:19;22.63;30.47
67502;SHT30;54349;52.528;19.760;2023-03-05T16:41:50;22.64;30.51
67502;SHT30;54349;52.528;19.760;2023-03-05T16:44:19;22.64;30.42
67502;SHT30;54349;52.528;19.760;2023-03-05T16:46:47;22.62;30.44
67502;SHT30;54349;52.528;19.760;2023-03-05T16:49:20;22.62;30.47
67502;SHT30;54349;52.528;19.760;2023-03-05T16:51:48;22.63;30.54
67502;SHT30;54349;52.528;19.760;2023-03-05T16:54:16;22.63;30.39
67502;SHT30;54349;52.528;19.760;2023-03-05T16:56:45;22.61;30.47
67502;SHT30;54349;52.528;19.760;2023-03-05T16:59:13;22.63;30.44
67502;SHT30;54349;52.528;19.760;2023-03-05T17:01:42;22.63;30.39
67502;SHT30;54349;52.528;19.760;2023-03-05T17:04:11;22.61;30.34
67502;SHT30;54349;52.528;19.760;2023-03-05T17:06:40;22.60;30.31
67502;SHT30;54349;52.528;19.760;2023-03-05T17:09:13;22.58;30.40
67502;SHT30;54349;52.528;19.760;2023-03-05T17:11:45;22.59;30.36
67502;SHT30;54349;52.528;19.760;2023-03-05T17:14:14;22.56;30.39
67502;SHT30;54349;52.528;19.760;2023-03-05T17:16:42;22.57;30.38
67502;SHT30;54349;52.528;19.760;2023-03-05T17:19:11;22.60;30.34
67502;SHT30;54349;52.528;19.760;2023-03-05T17:21:39;22.60;30.33
67502;SHT30;54349;52.528;19.760;2023-03-05T17:24:09;22.60;30.36
67502;SHT30;54349;52.528;19.760;2023-03-05T17:26:38;22.60;30.33
67502;SHT30;54349;52.528;19.760;2023-03-05T17:29:06;22.61;30.38
67502;SHT30;54349;52.528;19.760;2023-03-05T17:31:35;22.61;30.30
67502;SHT30;54349;52.528;19.760;2023-03-05T17:34:03;22.64;30.49
67502;SHT30;54349;52.528;19.760;2023-03-05T17:36:32;22.68;30.53
67502;SHT30;54349;52.528;19.760;2023-03-05T17:39:01;22.71;30.58
67502;SHT30;54349;52.528;19.760;2023-03-05T17:41:29;22.74;30.54